sensor_id;sensor_type;location;lat;lon;timestamp;P1;durP1;ratioP1;P2;durP2;ratioP2
34405;SDS011;20658;45.630;8.886;2023-04-06T00:02:14;31.77;;;14.73;;
34405;SDS011;20658;45.630;8.886;2023-04-06T00:04:47;29.05;;;13.50;;
34405;SDS011;20658;45.630;8.886;2023-04-06T00:07:21;31.63;;;13.52;;
34405;SDS011;20658;45.630;8.886;2023-04-06T00:09:54;29.75;;;13.32;;
34405;SDS011;20658;45.630;8.886;2023-04-06T00:12:27;25.60;;;12.30;;
34405;SDS011;20658;45.630;8.886;2023-04-06T00:15:02;27.70;;;12.07;;
34405;SDS011;20658;45.630;8.886;2023-04-06T00:17:37;30.67;;;15.07;;
34405;SDS011;20658;45.630;8.886;2023-04-06T00:20:11;32.08;;;13.63;;
34405;SDS011;20658;45.630;8.886;2023-04-06T00:22:44;32.53;;;15.85;;
34405;SDS011;20658;45.630;8.886;2023-04-06T00:25:18;26.50;;;13.52;;
34405;SDS011;20658;45.630;8.886;2023-04-06T00:27:51;26.40;;;13.18;;
34405;SDS011;20658;45.630;8.886;2023-04-06T00:30:26;23.85;;;12.77;;
34405;SDS011;20658;45.630;8.886;2023-04-06T00:32:59;31.17;;;13.98;;
34405;SDS011;20658;45.630;8.886;2023-04-06T00:35:33;30.40;;;13.52;;
34405;SDS011;20658;45.630;8.886;2023-04-06T00:38:07;31.08;;;13.95;;
34405;SDS011;20658;45.630;8.886;2023-04-06T00:40:35;25.15;;;12.88;;
34405;SDS011;20658;45.630;8.886;2023-04-06T00:43:10;23.88;;;13.13;;
34405;SDS011;20658;45.630;8.886;2023-04-06T00:45:45;21.63;;;11.18;;
34405;SDS011;20658;45.630;8.886;2023-04-06T00:48:19;25.40;;;12.35;;
34405;SDS011;20658;45.630;8.886;2023-04-06T00:50:52;23.25;;;11.45;;
34405;SDS011;20658;45.630;8.886;2023-04-06T00:53:28;25.05;;;11.98;;
34405;SDS011;20658;45.630;8.886;2023-04-06T00:56:03;24.50;;;12.63;;
34405;SDS011;20658;45.630;8.886;2023-04-06T00:58:47;23.80;;;11.32;;
34405;SDS011;20658;45.630;8.886;2023-04-06T01:01:22;26.10;;;12.73;;
34405;SDS011;20658;45.630;8.886;2023-04-06T01:04:01;23.05;;;11.50;;
34405;SDS011;20658;45.630;8.886;2023-04-06T01:06:39;24.42;;;11.68;;
34405;SDS011;20658;45.630;8.886;2023-04-06T01:09:13;22.50;;;10.25;;
34405;SDS011;20658;45.630;8.886;2023-04-06T01:11:47;26.63;;;11.43;;
34405;SDS011;20658;45.630;8.886;2023-04-06T01:14:25;19.80;;;10.48;;
34405;SDS011;20658;45.630;8.886;2023-04-06T01:17:01;28.20;;;11.38;;
34405;SDS011;20658;45.630;8.886;2023-04-06T01:19:35;24.45;;;11.13;;
34405;SDS011;20658;45.630;8.886;2023-04-06T01:22:17;23.35;;;10.98;;
34405;SDS011;20658;45.630;8.886;2023-04-06T01:25:00;22.05;;;10.85;;
34405;SDS011;20658;45.630;8.886;2023-04-06T01:27:46;21.00;;;9.75;;
34405;SDS011;20658;45.630;8.886;2023-04-06T01:30:24;22.75;;;10.70;;
34405;SDS011;20658;45.630;8.886;2023-04-06T01:33:04;21.98;;;9.40;;
34405;SDS011;20658;45.630;8.886;2023-04-06T01:35:56;23.63;;;10.23;;
34405;SDS011;20658;45.630;8.886;2023-04-06T01:38:31;21.63;;;10.90;;
34405;SDS011;20658;45.630;8.886;2023-04-06T01:41:05;18.98;;;10.43;;
34405;SDS011;20658;45.630;8.886;2023-04-06T01:43:47;21.73;;;11.02;;
34405;SDS011;20658;45.630;8.886;2023-04-06T01:46:25;21.45;;;10.20;;
34405;SDS011;20658;45.630;8.886;2023-04-06T01:49:02;21.70;;;9.77;;
34405;SDS011;20658;45.630;8.886;2023-04-06T01:51:38;24.08;;;10.32;;
34405;SDS011;20658;45.630;8.886;2023-04-06T01:54:13;25.73;;;11.35;;
34405;SDS011;20658;45.630;8.886;2023-04-06T01:57:00;19.17;;;10.73;;
34405;SDS011;20658;45.630;8.886;2023-04-06T01:59:40;24.23;;;10.40;;
34405;SDS011;20658;45.630;8.886;2023-04-06T02:02:25;21.77;;;10.27;;
34405;SDS011;20658;45.630;8.886;2023-04-06T02:05:03;22.13;;;11.68;;
34405;SDS011;20658;45.630;8.886;2023-04-06T02:07:38;24.83;;;12.10;;
34405;SDS011;20658;45.630;8.886;2023-04-06T02:10:18;21.33;;;10.57;;
34405;SDS011;20658;45.630;8.886;2023-04-06T02:12:51;23.00;;;11.27;;
34405;SDS011;20658;45.630;8.886;2023-04-06T02:15:26;20.10;;;10.23;;
34405;SDS011;20658;45.630;8.886;2023-04-06T02:17:55;21.05;;;10.95;;
34405;SDS011;20658;45.630;8.886;2023-04-06T02:20:24;23.23;;;11.18;;
34405;SDS011;20658;45.630;8.886;2023-04-06T02:22:58;24.33;;;11.98;;
34405;SDS011;20658;45.630;8.886;2023-04-06T02:25:34;24.38;;;11.88;;
34405;SDS011;20658;45.630;8.886;2023-04-06T02:28:07;20.17;;;10.45;;
34405;SDS011;20658;45.630;8.886;2023-04-06T02:30:41;25.05;;;12.65;;
34405;SDS011;20658;45.630;8.886;2023-04-06T02:33:15;19.33;;;10.00;;
34405;SDS011;20658;45.630;8.886;2023-04-06T02:35:48;25.65;;;12.25;;
34405;SDS011;20658;45.630;8.886;2023-04-06T02:38:17;24.15;;;11.80;;
34405;SDS011;20658;45.630;8.886;2023-04-06T02:40:52;24.77;;;11.18;;
34405;SDS011;20658;45.630;8.886;2023-04-06T02:43:27;25.40;;;12.95;;
34405;SDS011;20658;45.630;8.886;2023-04-06T02:46:05;23.95;;;12.93;;
34405;SDS011;20658;45.630;8.886;2023-04-06T02:48:39;22.30;;;12.18;;
34405;SDS011;20658;45.630;8.886;2023-04-06T02:51:13;24.60;;;10.45;;
34405;SDS011;20658;45.630;8.886;2023-04-06T02:53:52;25.33;;;11.95;;
34405;SDS011;20658;45.630;8.886;2023-04-06T02:56:27;24.00;;;12.43;;
34405;SDS011;20658;45.630;8.886;2023-04-06T02:58:55;24.77;;;12.13;;
34405;SDS011;20658;45.630;8.886;2023-04-06T03:01:31;22.73;;;12.93;;
34405;SDS011;20658;45.630;8.886;2023-04-06T03:04:03;21.60;;;11.98;;
34405;SDS011;20658;45.630;8.886;2023-04-06T03:06:36;25.02;;;12.52;;
34405;SDS011;20658;45.630;8.886;2023-04-06T03:09:20;23.55;;;13.13;;
34405;SDS011;20658;45.630;8.886;2023-04-06T03:11:54;25.88;;;11.93;;
34405;SDS011;20658;45.630;8.886;2023-04-06T03:14:33;21.58;;;12.43;;
34405;SDS011;20658;45.630;8.886;2023-04-06T03:17:06;24.48;;;12.30;;
34405;SDS011;20658;45.630;8.886;2023-04-06T03:19:40;26.05;;;12.57;;
34405;SDS011;20658;45.630;8.886;2023-04-06T03:22:10;23.60;;;12.45;;
34405;SDS011;20658;45.630;8.886;2023-04-06T03:24:45;30.25;;;14.27;;
34405;SDS011;20658;45.630;8.886;2023-04-06T03:27:15;27.63;;;14.50;;
34405;SDS011;20658;45.630;8.886;2023-04-06T03:29:49;26.98;;;13.43;;
34405;SDS011;20658;45.630;8.886;2023-04-06T03:32:30;29.73;;;15.10;;
34405;SDS011;20658;45.630;8.886;2023-04-06T03:35:03;24.90;;;13.90;;
34405;SDS011;20658;45.630;8.886;2023-04-06T03:37:37;34.40;;;14.15;;
34405;SDS011;20658;45.630;8.886;2023-04-06T03:40:11;23.33;;;12.70;;
34405;SDS011;20658;45.630;8.886;2023-04-06T03:42:41;24.27;;;12.90;;
34405;SDS011;20658;45.630;8.886;2023-04-06T03:45:15;24.63;;;12.73;;
34405;SDS011;20658;45.630;8.886;2023-04-06T03:47:47;25.88;;;12.30;;
34405;SDS011;20658;45.630;8.886;2023-04-06T03:50:16;22.58;;;11.63;;
34405;SDS011;20658;45.630;8.886;2023-04-06T03:52:44;23.75;;;13.13;;
34405;SDS011;20658;45.630;8.886;2023-04-06T03:55:13;26.55;;;13.27;;
34405;SDS011;20658;45.630;8.886;2023-04-06T03:57:48;22.15;;;12.13;;
34405;SDS011;20658;45.630;8.886;2023-04-06T04:00:24;23.42;;;12.38;;
34405;SDS011;20658;45.630;8.886;2023-04-06T04:02:54;24.38;;;12.90;;
34405;SDS011;20658;45.630;8.886;2023-04-06T04:05:22;23.20;;;12.95;;
34405;SDS011;20658;45.630;8.886;2023-04-06T04:07:56;27.63;;;13.25;;
34405;SDS011;20658;45.630;8.886;2023-04-06T04:10:30;30.38;;;13.60;;
34405;SDS011;20658;45.630;8.886;2023-04-06T04:13:05;26.05;;;13.00;;
34405;SDS011;20658;45.630;8.886;2023-04-06T04:15:33;28.77;;;14.00;;
34405;SDS011;20658;45.630;8.886;2023-04-06T04:18:02;26.73;;;13.02;;
34405;SDS011;20658;45.630;8.886;2023-04-06T04:20:35;24.58;;;12.70;;
34405;SDS011;20658;45.630;8.886;2023-04-06T04:23:11;24.88;;;13.68;;
34405;SDS011;20658;45.630;8.886;2023-04-06T04:25:45;29.58;;;13.93;;
34405;SDS011;20658;45.630;8.886;2023-04-06T04:28:19;24.10;;;13.70;;
34405;SDS011;20658;45.630;8.886;2023-04-06T04:30:54;22.85;;;12.70;;
34405;SDS011;20658;45.630;8.886;2023-04-06T04:33:31;26.75;;;14.15;;
34405;SDS011;20658;45.630;8.886;2023-04-06T04:36:03;28.35;;;13.63;;
34405;SDS011;20658;45.630;8.886;2023-04-06T04:38:38;25.25;;;13.90;;
34405;SDS011;20658;45.630;8.886;2023-04-06T04:41:12;25.65;;;13.85;;
34405;SDS011;20658;45.630;8.886;2023-04-06T04:43:49;25.70;;;13.20;;
34405;SDS011;20658;45.630;8.886;2023-04-06T04:46:24;24.42;;;14.55;;
34405;SDS011;20658;45.630;8.886;2023-04-06T04:48:58;27.65;;;14.40;;
34405;SDS011;20658;45.630;8.886;2023-04-06T04:51:32;28.45;;;13.60;;
34405;SDS011;20658;45.630;8.886;2023-04-06T04:54:17;29.17;;;14.35;;
34405;SDS011;20658;45.630;8.886;2023-04-06T04:56:50;26.88;;;13.35;;
34405;SDS011;20658;45.630;8.886;2023-04-06T04:59:38;23.40;;;12.02;;
34405;SDS011;20658;45.630;8.886;2023-04-06T05:02:16;28.80;;;12.70;;
34405;SDS011;20658;45.630;8.886;2023-04-06T05:05:11;25.88;;;12.25;;
34405;SDS011;20658;45.630;8.886;2023-04-06T05:07:45;28.20;;;11.38;;
34405;SDS011;20658;45.630;8.886;2023-04-06T05:10:45;23.98;;;12.05;;
34405;SDS011;20658;45.630;8.886;2023-04-06T05:13:19;23.77;;;11.73;;
34405;SDS011;20658;45.630;8.886;2023-04-06T05:15:56;24.83;;;11.77;;
34405;SDS011;20658;45.630;8.886;2023-04-06T05:18:32;26.48;;;10.95;;
34405;SDS011;20658;45.630;8.886;2023-04-06T05:21:06;25.33;;;12.10;;
34405;SDS011;20658;45.630;8.886;2023-04-06T05:23:59;20.25;;;10.60;;
34405;SDS011;20658;45.630;8.886;2023-04-06T05:26:34;21.10;;;10.65;;
34405;SDS011;20658;45.630;8.886;2023-04-06T05:29:16;23.77;;;11.38;;
34405;SDS011;20658;45.630;8.886;2023-04-06T05:31:52;22.30;;;10.20;;
34405;SDS011;20658;45.630;8.886;2023-04-06T05:34:26;29.95;;;16.55;;
34405;SDS011;20658;45.630;8.886;2023-04-06T05:37:03;45.10;;;22.30;;
34405;SDS011;20658;45.630;8.886;2023-04-06T05:39:36;97.88;;;41.15;;
34405;SDS011;20658;45.630;8.886;2023-04-06T05:42:10;48.67;;;24.50;;
34405;SDS011;20658;45.630;8.886;2023-04-06T05:44:48;32.55;;;16.85;;
34405;SDS011;20658;45.630;8.886;2023-04-06T05:47:23;25.33;;;14.05;;
34405;SDS011;20658;45.630;8.886;2023-04-06T05:50:05;32.65;;;19.50;;
34405;SDS011;20658;45.630;8.886;2023-04-06T05:52:39;35.33;;;19.05;;
34405;SDS011;20658;45.630;8.886;2023-04-06T05:55:18;29.42;;;16.13;;
34405;SDS011;20658;45.630;8.886;2023-04-06T05:58:03;32.70;;;18.40;;
34405;SDS011;20658;45.630;8.886;2023-04-06T06:00:37;28.13;;;15.90;;
34405;SDS011;20658;45.630;8.886;2023-04-06T06:03:12;23.83;;;14.38;;
34405;SDS011;20658;45.630;8.886;2023-04-06T06:05:51;23.88;;;12.95;;
34405;SDS011;20658;45.630;8.886;2023-04-06T06:08:29;22.10;;;12.80;;
34405;SDS011;20658;45.630;8.886;2023-04-06T06:11:09;23.20;;;11.23;;
34405;SDS011;20658;45.630;8.886;2023-04-06T06:13:42;19.63;;;10.65;;
34405;SDS011;20658;45.630;8.886;2023-04-06T06:16:16;18.75;;;9.70;;
34405;SDS011;20658;45.630;8.886;2023-04-06T06:18:52;19.98;;;9.70;;
34405;SDS011;20658;45.630;8.886;2023-04-06T06:21:25;20.17;;;9.30;;
34405;SDS011;20658;45.630;8.886;2023-04-06T06:23:59;21.13;;;9.27;;
34405;SDS011;20658;45.630;8.886;2023-04-06T06:26:33;22.80;;;10.73;;
34405;SDS011;20658;45.630;8.886;2023-04-06T06:29:10;17.10;;;9.68;;
34405;SDS011;20658;45.630;8.886;2023-04-06T06:31:39;20.33;;;9.73;;
34405;SDS011;20658;45.630;8.886;2023-04-06T06:34:14;24.67;;;9.30;;
34405;SDS011;20658;45.630;8.886;2023-04-06T06:36:48;17.30;;;9.18;;
34405;SDS011;20658;45.630;8.886;2023-04-06T06:39:23;23.30;;;8.70;;
34405;SDS011;20658;45.630;8.886;2023-04-06T06:41:51;25.80;;;9.52;;
34405;SDS011;20658;45.630;8.886;2023-04-06T06:44:42;19.88;;;9.95;;
34405;SDS011;20658;45.630;8.886;2023-04-06T06:47:16;17.45;;;8.07;;
34405;SDS011;20658;45.630;8.886;2023-04-06T06:49:51;19.98;;;8.93;;
34405;SDS011;20658;45.630;8.886;2023-04-06T06:52:24;23.70;;;9.02;;
34405;SDS011;20658;45.630;8.886;2023-04-06T06:54:58;16.92;;;9.23;;
34405;SDS011;20658;45.630;8.886;2023-04-06T06:57:32;23.13;;;9.35;;
34405;SDS011;20658;45.630;8.886;2023-04-06T07:00:07;24.38;;;9.93;;
34405;SDS011;20658;45.630;8.886;2023-04-06T07:02:45;23.98;;;10.00;;
34405;SDS011;20658;45.630;8.886;2023-04-06T07:05:19;24.33;;;9.38;;
34405;SDS011;20658;45.630;8.886;2023-04-06T07:07:54;23.48;;;10.30;;
34405;SDS011;20658;45.630;8.886;2023-04-06T07:10:28;19.27;;;8.85;;
34405;SDS011;20658;45.630;8.886;2023-04-06T07:13:01;16.92;;;8.32;;
34405;SDS011;20658;45.630;8.886;2023-04-06T07:15:30;24.70;;;8.85;;
34405;SDS011;20658;45.630;8.886;2023-04-06T07:18:03;15.05;;;8.07;;
34405;SDS011;20658;45.630;8.886;2023-04-06T07:20:38;19.33;;;9.27;;
34405;SDS011;20658;45.630;8.886;2023-04-06T07:23:12;23.35;;;10.15;;
34405;SDS011;20658;45.630;8.886;2023-04-06T07:25:45;24.33;;;9.23;;
34405;SDS011;20658;45.630;8.886;2023-04-06T07:28:19;25.77;;;8.52;;
34405;SDS011;20658;45.630;8.886;2023-04-06T07:30:53;11.85;;;4.88;;
34405;SDS011;20658;45.630;8.886;2023-04-06T07:33:27;12.80;;;4.18;;
34405;SDS011;20658;45.630;8.886;2023-04-06T07:36:03;10.75;;;4.93;;
34405;SDS011;20658;45.630;8.886;2023-04-06T07:38:37;11.02;;;3.85;;
34405;SDS011;20658;45.630;8.886;2023-04-06T07:41:11;7.80;;;3.47;;
34405;SDS011;20658;45.630;8.886;2023-04-06T07:43:44;10.45;;;3.90;;
34405;SDS011;20658;45.630;8.886;2023-04-06T07:46:18;8.95;;;4.13;;
34405;SDS011;20658;45.630;8.886;2023-04-06T07:48:52;6.28;;;3.22;;
34405;SDS011;20658;45.630;8.886;2023-04-06T07:51:28;5.65;;;3.38;;
34405;SDS011;20658;45.630;8.886;2023-04-06T07:54:02;9.20;;;3.00;;
34405;SDS011;20658;45.630;8.886;2023-04-06T07:56:36;12.90;;;3.70;;
34405;SDS011;20658;45.630;8.886;2023-04-06T07:59:10;9.32;;;3.45;;
34405;SDS011;20658;45.630;8.886;2023-04-06T08:01:44;8.68;;;3.60;;
34405;SDS011;20658;45.630;8.886;2023-04-06T08:04:18;9.32;;;3.75;;
34405;SDS011;20658;45.630;8.886;2023-04-06T08:06:53;7.25;;;3.53;;
34405;SDS011;20658;45.630;8.886;2023-04-06T08:09:27;8.02;;;3.88;;
34405;SDS011;20658;45.630;8.886;2023-04-06T08:12:01;8.52;;;3.45;;
34405;SDS011;20658;45.630;8.886;2023-04-06T08:14:29;8.05;;;4.40;;
34405;SDS011;20658;45.630;8.886;2023-04-06T08:17:02;9.48;;;4.32;;
34405;SDS011;20658;45.630;8.886;2023-04-06T08:19:36;10.63;;;4.60;;
34405;SDS011;20658;45.630;8.886;2023-04-06T08:22:11;9.90;;;5.28;;
34405;SDS011;20658;45.630;8.886;2023-04-06T08:24:44;13.43;;;4.50;;
34405;SDS011;20658;45.630;8.886;2023-04-06T08:27:17;8.68;;;4.43;;
34405;SDS011;20658;45.630;8.886;2023-04-06T08:29:51;9.40;;;5.22;;
34405;SDS011;20658;45.630;8.886;2023-04-06T08:32:24;8.95;;;4.45;;
34405;SDS011;20658;45.630;8.886;2023-04-06T08:34:58;9.65;;;4.95;;
34405;SDS011;20658;45.630;8.886;2023-04-06T08:37:33;11.35;;;4.55;;
34405;SDS011;20658;45.630;8.886;2023-04-06T08:40:06;11.02;;;4.75;;
34405;SDS011;20658;45.630;8.886;2023-04-06T08:42:48;11.60;;;5.22;;
34405;SDS011;20658;45.630;8.886;2023-04-06T08:45:26;10.82;;;5.20;;
34405;SDS011;20658;45.630;8.886;2023-04-06T08:48:00;12.77;;;4.82;;
34405;SDS011;20658;45.630;8.886;2023-04-06T08:50:35;11.98;;;5.50;;
34405;SDS011;20658;45.630;8.886;2023-04-06T08:53:12;14.63;;;4.90;;
34405;SDS011;20658;45.630;8.886;2023-04-06T08:55:46;14.32;;;5.10;;
34405;SDS011;20658;45.630;8.886;2023-04-06T08:58:20;12.68;;;5.45;;
34405;SDS011;20658;45.630;8.886;2023-04-06T09:00:54;11.65;;;5.63;;
34405;SDS011;20658;45.630;8.886;2023-04-06T09:03:22;12.13;;;5.43;;
34405;SDS011;20658;45.630;8.886;2023-04-06T09:05:53;10.30;;;5.65;;
34405;SDS011;20658;45.630;8.886;2023-04-06T09:08:28;10.07;;;5.35;;
34405;SDS011;20658;45.630;8.886;2023-04-06T09:11:02;11.90;;;5.50;;
34405;SDS011;20658;45.630;8.886;2023-04-06T09:13:45;8.05;;;4.82;;
34405;SDS011;20658;45.630;8.886;2023-04-06T09:16:20;15.80;;;5.93;;
34405;SDS011;20658;45.630;8.886;2023-04-06T09:18:54;11.10;;;5.88;;
34405;SDS011;20658;45.630;8.886;2023-04-06T09:21:36;12.90;;;5.78;;
34405;SDS011;20658;45.630;8.886;2023-04-06T09:24:12;11.35;;;5.88;;
34405;SDS011;20658;45.630;8.886;2023-04-06T09:26:44;15.23;;;6.53;;
34405;SDS011;20658;45.630;8.886;2023-04-06T09:29:22;11.43;;;6.03;;
34405;SDS011;20658;45.630;8.886;2023-04-06T09:32:02;14.45;;;6.53;;
34405;SDS011;20658;45.630;8.886;2023-04-06T09:34:36;14.25;;;6.43;;
34405;SDS011;20658;45.630;8.886;2023-04-06T09:37:12;12.95;;;6.45;;
34405;SDS011;20658;45.630;8.886;2023-04-06T09:39:47;11.23;;;6.15;;
34405;SDS011;20658;45.630;8.886;2023-04-06T09:42:23;12.23;;;6.63;;
34405;SDS011;20658;45.630;8.886;2023-04-06T09:44:59;11.98;;;6.25;;
34405;SDS011;20658;45.630;8.886;2023-04-06T09:47:33;12.63;;;6.10;;
34405;SDS011;20658;45.630;8.886;2023-04-06T09:50:11;17.70;;;7.40;;
34405;SDS011;20658;45.630;8.886;2023-04-06T09:52:46;13.80;;;7.63;;
34405;SDS011;20658;45.630;8.886;2023-04-06T09:55:43;17.02;;;7.55;;
34405;SDS011;20658;45.630;8.886;2023-04-06T09:58:13;14.35;;;7.07;;
34405;SDS011;20658;45.630;8.886;2023-04-06T10:00:51;13.80;;;6.90;;
34405;SDS011;20658;45.630;8.886;2023-04-06T10:03:36;17.50;;;7.80;;
34405;SDS011;20658;45.630;8.886;2023-04-06T10:06:18;16.13;;;7.82;;
34405;SDS011;20658;45.630;8.886;2023-04-06T10:08:51;12.00;;;7.45;;
34405;SDS011;20658;45.630;8.886;2023-04-06T10:11:28;14.55;;;7.13;;
34405;SDS011;20658;45.630;8.886;2023-04-06T10:14:01;13.57;;;6.80;;
34405;SDS011;20658;45.630;8.886;2023-04-06T10:16:35;17.50;;;8.02;;
34405;SDS011;20658;45.630;8.886;2023-04-06T10:19:10;12.13;;;7.53;;
34405;SDS011;20658;45.630;8.886;2023-04-06T10:21:48;19.67;;;8.23;;
34405;SDS011;20658;45.630;8.886;2023-04-06T10:24:26;17.48;;;8.00;;
34405;SDS011;20658;45.630;8.886;2023-04-06T10:27:02;16.08;;;7.95;;
34405;SDS011;20658;45.630;8.886;2023-04-06T10:29:41;15.88;;;7.95;;
34405;SDS011;20658;45.630;8.886;2023-04-06T10:32:16;16.02;;;8.05;;
34405;SDS011;20658;45.630;8.886;2023-04-06T10:34:50;18.02;;;8.43;;
34405;SDS011;20658;45.630;8.886;2023-04-06T10:37:23;19.10;;;8.85;;
34405;SDS011;20658;45.630;8.886;2023-04-06T10:39:56;15.75;;;9.02;;
34405;SDS011;20658;45.630;8.886;2023-04-06T10:42:37;16.27;;;8.07;;
34405;SDS011;20658;45.630;8.886;2023-04-06T10:45:18;16.40;;;8.18;;
34405;SDS011;20658;45.630;8.886;2023-04-06T10:47:53;18.58;;;8.40;;
34405;SDS011;20658;45.630;8.886;2023-04-06T10:50:27;15.18;;;9.00;;
34405;SDS011;20658;45.630;8.886;2023-04-06T10:53:02;16.75;;;8.68;;
34405;SDS011;20658;45.630;8.886;2023-04-06T10:55:37;17.65;;;8.55;;
34405;SDS011;20658;45.630;8.886;2023-04-06T10:58:09;16.27;;;8.73;;
34405;SDS011;20658;45.630;8.886;2023-04-06T11:00:43;15.90;;;8.52;;
34405;SDS011;20658;45.630;8.886;2023-04-06T11:03:21;16.80;;;8.05;;
34405;SDS011;20658;45.630;8.886;2023-04-06T11:05:55;14.90;;;8.20;;
34405;SDS011;20658;45.630;8.886;2023-04-06T11:08:24;15.32;;;8.60;;
34405;SDS011;20658;45.630;8.886;2023-04-06T11:11:06;17.92;;;9.00;;
34405;SDS011;20658;45.630;8.886;2023-04-06T11:13:43;20.25;;;9.15;;
34405;SDS011;20658;45.630;8.886;2023-04-06T11:16:19;18.83;;;9.60;;
34405;SDS011;20658;45.630;8.886;2023-04-06T11:18:55;18.00;;;9.00;;
34405;SDS011;20658;45.630;8.886;2023-04-06T11:21:33;15.88;;;8.88;;
34405;SDS011;20658;45.630;8.886;2023-04-06T11:24:08;22.55;;;10.30;;
34405;SDS011;20658;45.630;8.886;2023-04-06T11:26:43;18.00;;;9.63;;
34405;SDS011;20658;45.630;8.886;2023-04-06T11:29:21;20.35;;;9.90;;
34405;SDS011;20658;45.630;8.886;2023-04-06T11:31:58;19.02;;;10.27;;
34405;SDS011;20658;45.630;8.886;2023-04-06T11:34:34;17.42;;;9.68;;
34405;SDS011;20658;45.630;8.886;2023-04-06T11:37:10;18.38;;;9.57;;
34405;SDS011;20658;45.630;8.886;2023-04-06T11:39:46;19.90;;;10.20;;
34405;SDS011;20658;45.630;8.886;2023-04-06T11:42:23;14.27;;;8.73;;
34405;SDS011;20658;45.630;8.886;2023-04-06T11:44:59;16.77;;;9.77;;
34405;SDS011;20658;45.630;8.886;2023-04-06T11:47:33;19.58;;;9.77;;
34405;SDS011;20658;45.630;8.886;2023-04-06T11:50:08;15.35;;;10.02;;
34405;SDS011;20658;45.630;8.886;2023-04-06T11:52:43;20.63;;;9.88;;
34405;SDS011;20658;45.630;8.886;2023-04-06T11:55:18;17.42;;;10.63;;
34405;SDS011;20658;45.630;8.886;2023-04-06T11:57:52;18.00;;;10.48;;
34405;SDS011;20658;45.630;8.886;2023-04-06T12:00:27;19.42;;;9.85;;
34405;SDS011;20658;45.630;8.886;2023-04-06T12:03:05;17.67;;;9.80;;
34405;SDS011;20658;45.630;8.886;2023-04-06T12:05:34;18.00;;;9.75;;
34405;SDS011;20658;45.630;8.886;2023-04-06T12:08:07;26.70;;;12.05;;
34405;SDS011;20658;45.630;8.886;2023-04-06T12:10:40;19.73;;;10.77;;
34405;SDS011;20658;45.630;8.886;2023-04-06T12:13:14;19.13;;;10.95;;
34405;SDS011;20658;45.630;8.886;2023-04-06T12:15:48;16.95;;;10.20;;
34405;SDS011;20658;45.630;8.886;2023-04-06T12:18:22;19.92;;;11.13;;
34405;SDS011;20658;45.630;8.886;2023-04-06T12:20:59;18.50;;;10.25;;
34405;SDS011;20658;45.630;8.886;2023-04-06T12:23:27;21.02;;;10.50;;
34405;SDS011;20658;45.630;8.886;2023-04-06T12:26:01;18.02;;;10.00;;
34405;SDS011;20658;45.630;8.886;2023-04-06T12:28:37;18.05;;;9.98;;
34405;SDS011;20658;45.630;8.886;2023-04-06T12:31:15;21.92;;;10.93;;
34405;SDS011;20658;45.630;8.886;2023-04-06T12:33:49;20.98;;;10.70;;
34405;SDS011;20658;45.630;8.886;2023-04-06T12:36:19;19.05;;;10.45;;
34405;SDS011;20658;45.630;8.886;2023-04-06T12:38:53;19.50;;;10.25;;
34405;SDS011;20658;45.630;8.886;2023-04-06T12:41:27;21.90;;;11.48;;
34405;SDS011;20658;45.630;8.886;2023-04-06T12:44:01;17.35;;;10.13;;
34405;SDS011;20658;45.630;8.886;2023-04-06T12:46:31;16.55;;;11.05;;
34405;SDS011;20658;45.630;8.886;2023-04-06T12:49:04;23.38;;;11.60;;
34405;SDS011;20658;45.630;8.886;2023-04-06T12:51:38;22.73;;;12.63;;
34405;SDS011;20658;45.630;8.886;2023-04-06T12:54:11;24.27;;;12.02;;
34405;SDS011;20658;45.630;8.886;2023-04-06T12:56:45;21.30;;;10.88;;
34405;SDS011;20658;45.630;8.886;2023-04-06T12:59:18;17.80;;;10.70;;
34405;SDS011;20658;45.630;8.886;2023-04-06T13:01:53;17.67;;;10.88;;
34405;SDS011;20658;45.630;8.886;2023-04-06T13:04:26;19.00;;;10.45;;
34405;SDS011;20658;45.630;8.886;2023-04-06T13:07:00;22.00;;;11.88;;
34405;SDS011;20658;45.630;8.886;2023-04-06T13:09:28;19.02;;;10.48;;
34405;SDS011;20658;45.630;8.886;2023-04-06T13:12:01;21.77;;;10.75;;
34405;SDS011;20658;45.630;8.886;2023-04-06T13:14:36;18.63;;;10.38;;
34405;SDS011;20658;45.630;8.886;2023-04-06T13:17:12;23.08;;;10.68;;
34405;SDS011;20658;45.630;8.886;2023-04-06T13:19:45;18.73;;;10.02;;
34405;SDS011;20658;45.630;8.886;2023-04-06T13:22:18;19.42;;;11.07;;
34405;SDS011;20658;45.630;8.886;2023-04-06T13:24:54;22.95;;;10.80;;
34405;SDS011;20658;45.630;8.886;2023-04-06T13:27:27;16.15;;;9.77;;
34405;SDS011;20658;45.630;8.886;2023-04-06T13:30:00;21.30;;;10.40;;
34405;SDS011;20658;45.630;8.886;2023-04-06T13:32:35;17.33;;;10.10;;
34405;SDS011;20658;45.630;8.886;2023-04-06T13:35:09;19.38;;;9.55;;
34405;SDS011;20658;45.630;8.886;2023-04-06T13:37:43;18.55;;;9.18;;
34405;SDS011;20658;45.630;8.886;2023-04-06T13:40:16;19.95;;;10.10;;
34405;SDS011;20658;45.630;8.886;2023-04-06T13:42:50;17.23;;;8.85;;
34405;SDS011;20658;45.630;8.886;2023-04-06T13:45:18;16.45;;;8.95;;
34405;SDS011;20658;45.630;8.886;2023-04-06T13:47:53;19.60;;;9.25;;
34405;SDS011;20658;45.630;8.886;2023-04-06T13:50:27;15.75;;;8.32;;
34405;SDS011;20658;45.630;8.886;2023-04-06T13:53:01;14.20;;;8.02;;
34405;SDS011;20658;45.630;8.886;2023-04-06T13:55:34;27.05;;;8.35;;
34405;SDS011;20658;45.630;8.886;2023-04-06T13:58:07;20.55;;;9.35;;
34405;SDS011;20658;45.630;8.886;2023-04-06T14:00:40;20.27;;;9.02;;
34405;SDS011;20658;45.630;8.886;2023-04-06T14:03:15;21.35;;;8.73;;
34405;SDS011;20658;45.630;8.886;2023-04-06T14:05:48;16.83;;;8.90;;
34405;SDS011;20658;45.630;8.886;2023-04-06T14:08:21;14.88;;;8.13;;
34405;SDS011;20658;45.630;8.886;2023-04-06T14:10:55;17.15;;;8.18;;
34405;SDS011;20658;45.630;8.886;2023-04-06T14:13:28;13.57;;;7.93;;
34405;SDS011;20658;45.630;8.886;2023-04-06T14:15:56;14.68;;;7.57;;
34405;SDS011;20658;45.630;8.886;2023-04-06T14:18:31;16.60;;;7.88;;
34405;SDS011;20658;45.630;8.886;2023-04-06T14:21:05;16.33;;;7.95;;
34405;SDS011;20658;45.630;8.886;2023-04-06T14:23:38;17.40;;;8.38;;
34405;SDS011;20658;45.630;8.886;2023-04-06T14:26:11;12.65;;;7.63;;
34405;SDS011;20658;45.630;8.886;2023-04-06T14:28:45;13.35;;;6.60;;
34405;SDS011;20658;45.630;8.886;2023-04-06T14:31:18;16.98;;;9.18;;
34405;SDS011;20658;45.630;8.886;2023-04-06T14:33:53;14.07;;;8.25;;
34405;SDS011;20658;45.630;8.886;2023-04-06T14:36:26;17.65;;;8.48;;
34405;SDS011;20658;45.630;8.886;2023-04-06T14:39:00;18.23;;;8.90;;
34405;SDS011;20658;45.630;8.886;2023-04-06T14:41:33;19.00;;;8.85;;
34405;SDS011;20658;45.630;8.886;2023-04-06T14:44:07;21.20;;;8.30;;
34405;SDS011;20658;45.630;8.886;2023-04-06T14:46:43;18.30;;;9.75;;
34405;SDS011;20658;45.630;8.886;2023-04-06T14:49:17;18.35;;;7.97;;
34405;SDS011;20658;45.630;8.886;2023-04-06T14:51:51;17.48;;;9.18;;
34405;SDS011;20658;45.630;8.886;2023-04-06T14:54:24;21.63;;;9.68;;
34405;SDS011;20658;45.630;8.886;2023-04-06T14:56:52;22.65;;;9.38;;
34405;SDS011;20658;45.630;8.886;2023-04-06T14:59:26;22.38;;;10.40;;
34405;SDS011;20658;45.630;8.886;2023-04-06T15:01:59;18.30;;;9.45;;
34405;SDS011;20658;45.630;8.886;2023-04-06T15:04:35;21.05;;;9.38;;
34405;SDS011;20658;45.630;8.886;2023-04-06T15:07:08;19.58;;;9.65;;
34405;SDS011;20658;45.630;8.886;2023-04-06T15:09:42;18.65;;;9.32;;
34405;SDS011;20658;45.630;8.886;2023-04-06T15:12:15;23.00;;;10.30;;
34405;SDS011;20658;45.630;8.886;2023-04-06T15:14:48;20.10;;;9.95;;